Time;durP1;ratioP1;P1;durP2;ratioP2;P2;SDS_P1;SDS_P2;PMS_P1;PMS_P2;Temp;Humidity;BMP_temperature;BMP_pressure;BME280_temperature;BME280_humidity;BME280_pressure;Samples;Min_cycle;Max_cycle;Signal;HPM_P1;HPM_P2
2022/12/07 00:01:34;;;;;;;3.45;2.05;;;5.50;99.90;;;5.63;88.44;100818.28;5007612;28;20211;-66
2022/12/07 00:04:06;;;;;;;1.97;1.87;;;5.50;99.90;;;5.65;88.22;100817.31;4993250;28;20206;-65
2022/12/07 00:06:36;;;;;;;2.00;1.77;;;5.50;99.90;;;5.69;88.31;100818.84;5010680;28;20638;-64
2022/12/07 00:09:10;;;;;;;1.65;1.55;;;5.50;99.90;;;5.73;87.50;100815.19;5008624;28;20634;-64
2022/12/07 00:11:37;;;;;;;1.55;1.45;;;5.60;99.90;;;5.73;88.38;100816.97;5020458;28;20205;-65
2022/12/07 00:14:09;;;;;;;2.08;1.88;;;5.60;99.90;;;5.72;87.81;100813.53;5011180;28;20203;-65
2022/12/07 00:16:37;;;;;;;1.80;1.70;;;5.60;99.90;;;5.71;87.50;100817.00;4994508;28;20608;-64
2022/12/07 00:19:04;;;;;;;2.00;1.80;;;5.60;99.90;;;5.70;88.01;100815.34;5011067;28;20711;-64
2022/12/07 00:21:34;;;;;;;2.42;2.13;;;5.60;99.90;;;5.71;88.09;100814.41;5007673;28;21053;-64
2022/12/07 00:24:04;;;;;;;1.77;1.60;;;5.60;99.90;;;5.72;88.11;100807.50;5006673;28;20231;-64
2022/12/07 00:26:35;;;;;;;3.03;2.25;;;5.60;99.90;;;5.70;88.08;100805.00;5010394;28;20660;-65
2022/12/07 00:29:19;;;;;;;2.70;2.50;;;5.60;99.90;;;5.75;87.84;100807.38;5011249;28;20207;-64
2022/12/07 00:31:46;;;;;;;2.60;1.90;;;5.60;99.90;;;5.77;87.81;100793.41;4992600;28;20711;-64
2022/12/07 00:34:17;;;;;;;2.00;1.83;;;5.60;99.90;;;5.79;87.73;100801.13;4986742;28;21006;-64
2022/12/07 00:36:44;;;;;;;1.97;1.57;;;5.60;99.90;;;5.79;87.53;100795.94;5004375;28;21121;-64
2022/12/07 00:39:11;;;;;;;2.60;2.40;;;5.60;99.90;;;5.81;87.83;100799.28;5006292;28;20669;-63
2022/12/07 00:41:38;;;;;;;3.30;2.20;;;5.60;99.90;;;5.80;88.18;100792.41;5006977;28;21112;-62
2022/12/07 00:44:05;;;;;;;2.53;2.23;;;5.70;99.90;;;5.83;87.64;100793.13;5010270;28;20625;-64
2022/12/07 00:46:32;;;;;;;3.27;2.30;;;5.70;99.90;;;5.87;87.10;100784.31;5010737;28;20708;-64
2022/12/07 00:48:59;;;;;;;3.10;2.77;;;5.70;99.90;;;5.90;87.31;100788.50;5010307;28;21383;-64
2022/12/07 00:51:26;;;;;;;2.77;2.20;;;5.70;99.90;;;5.88;87.04;100791.16;5010273;28;20644;-64
2022/12/07 00:53:53;;;;;;;2.57;2.07;;;5.70;99.90;;;5.89;86.54;100790.25;4993453;28;20628;-64
2022/12/07 00:56:27;;;;;;;2.47;2.28;;;5.70;99.90;;;5.89;86.85;100790.25;5009538;28;20664;-64
2022/12/07 00:59:03;;;;;;;2.10;2.00;;;5.70;99.90;;;5.87;86.60;100794.69;5009529;28;20242;-64
2022/12/07 01:01:34;;;;;;;1.93;1.83;;;5.70;99.90;;;5.83;86.70;100795.72;5010229;28;20639;-65
2022/12/07 01:04:02;;;;;;;2.00;1.87;;;5.70;99.90;;;5.75;87.55;100784.88;5010487;28;20631;-63
2022/12/07 01:06:30;;;;;;;7.30;2.03;;;5.70;99.90;;;5.82;87.40;100788.84;5009865;28;20664;-65
2022/12/07 01:08:57;;;;;;;2.77;1.80;;;5.70;99.90;;;5.77;87.39;100790.00;4993042;28;20644;-65
2022/12/07 01:11:28;;;;;;;3.30;1.90;;;5.70;99.90;;;5.81;86.79;100789.78;5009980;28;20659;-65
2022/12/07 01:13:57;;;;;;;1.83;1.80;;;5.70;99.90;;;5.82;87.26;100791.44;4993273;28;20622;-66
2022/12/07 01:16:26;;;;;;;2.05;1.95;;;5.70;99.90;;;5.71;87.33;100787.72;4992448;28;21221;-65
2022/12/07 01:18:57;;;;;;;1.53;1.43;;;5.70;99.90;;;5.78;87.73;100779.56;5010777;28;20227;-64
2022/12/07 01:21:28;;;;;;;1.73;1.63;;;5.70;99.90;;;5.65;87.50;100778.47;5009284;28;20641;-64
2022/12/07 01:23:57;;;;;;;0.80;0.80;;;5.70;99.90;;;5.46;88.06;100767.34;5010138;28;20681;-64
2022/12/07 01:26:25;;;;;;;1.88;1.63;;;5.50;99.90;;;5.32;89.14;100769.78;5009288;28;20641;-65
2022/12/07 01:28:55;;;;;;;1.95;1.83;;;5.50;99.90;;;5.34;89.15;100767.97;5003422;28;20203;-66
2022/12/07 01:31:25;;;;;;;2.72;2.53;;;5.40;99.90;;;5.54;88.59;100788.53;5008442;28;20212;-64
2022/12/07 01:33:56;;;;;;;3.50;2.43;;;5.40;99.90;;;5.56;88.77;100788.47;5008643;28;20199;-65
2022/12/07 01:36:35;;;;;;;2.28;2.08;;;5.40;99.90;;;5.62;88.34;100789.00;4998559;28;20716;-65
2022/12/07 01:39:06;;;;;;;3.10;2.70;;;5.40;99.90;;;5.68;87.53;100793.88;5009420;28;20318;-64
2022/12/07 01:41:40;;;;;;;6.53;2.30;;;5.50;99.90;;;5.75;87.28;100797.00;5009868;28;20664;-65
2022/12/07 01:44:21;;;;;;;2.00;1.85;;;5.50;99.90;;;5.73;86.92;100794.47;5006014;28;20638;-65
2022/12/07 01:47:00;;;;;;;1.93;1.67;;;5.60;99.90;;;5.66;86.96;100798.28;5013148;28;20199;-64
2022/12/07 01:49:46;;;;;;;1.58;1.50;;;5.60;99.90;;;5.63;87.51;100793.25;5012921;28;20626;-64
2022/12/07 01:52:20;;;;;;;1.40;1.30;;;5.50;99.90;;;5.69;87.13;100782.59;4988670;28;20199;-65
2022/12/07 01:54:50;;;;;;;1.55;1.45;;;5.50;99.90;;;5.44;87.63;100785.56;5011757;28;20653;-64
2022/12/07 01:57:18;;;;;;;1.63;1.20;;;5.50;99.90;;;5.46;88.07;100781.13;4995917;28;20225;-65
2022/12/07 01:59:48;;;;;;;2.00;1.07;;;5.50;99.90;;;5.34;88.28;100775.72;5012928;28;20665;-64
2022/12/07 02:02:26;;;;;;;1.90;1.40;;;5.40;99.90;;;5.37;88.64;100779.00;4996202;28;21196;-64
2022/12/07 02:04:56;;;;;;;2.25;2.10;;;5.40;99.90;;;5.48;87.89;100776.72;4994277;28;20641;-66
2022/12/07 02:07:23;;;;;;;4.63;2.90;;;5.40;99.90;;;5.62;87.73;100788.16;4995021;28;20202;-64
2022/12/07 02:09:50;;;;;;;2.17;2.07;;;5.50;99.90;;;5.62;87.74;100788.16;4995338;28;20203;-65
2022/12/07 02:12:18;;;;;;;1.98;1.70;;;5.50;99.90;;;5.47;87.73;100777.63;5025643;28;20630;-65
2022/12/07 02:14:44;;;;;;;0.97;0.50;;;5.50;99.90;;;5.47;87.91;100771.63;5013795;28;20223;-64
2022/12/07 02:17:44;;;;;;;1.73;1.63;;;5.40;99.90;;;5.25;89.47;100770.97;5012417;28;20633;-65
2022/12/07 02:20:38;;;;;;;3.92;1.60;;;5.30;99.90;;;5.35;88.67;100749.78;4995942;28;20226;-65
2022/12/07 02:23:39;;;;;;;2.05;1.95;;;5.30;99.90;;;5.32;89.09;100760.25;4992863;28;20229;-64
2022/12/07 02:27:22;;;;;;;2.63;2.45;;;5.30;99.90;;;5.25;89.34;100760.63;5008468;28;20218;-65
2022/12/07 02:30:10;;;;;;;3.90;2.53;;;5.20;99.90;;;5.32;89.20;100772.38;4940078;28;20206;-65
2022/12/07 02:32:51;;;;;;;3.00;2.80;;;5.20;99.90;;;5.04;90.21;100770.25;4937939;29;21283;-65
2022/12/07 02:35:26;;;;;;;2.83;2.20;;;5.20;99.90;;;5.16;90.28;100767.09;5019863;23;20242;-66
2022/12/07 02:38:19;;;;;;;2.35;2.15;;;5.10;99.90;;;5.20;90.08;100775.53;4999149;28;20288;-66
2022/12/07 02:41:11;;;;;;;1.55;1.52;;;5.10;99.90;;;5.11;90.20;100768.22;5016234;28;20660;-65
2022/12/07 02:43:54;;;;;;;2.20;1.60;;;5.10;99.90;;;5.15;89.51;100772.34;5033250;28;20202;-67
2022/12/07 02:46:30;;;;;;;2.53;2.17;;;5.10;99.90;;;5.33;88.91;100768.84;5032495;28;20214;-65
2022/12/07 02:48:59;;;;;;;2.30;1.60;;;5.10;99.90;;;5.48;87.70;100761.19;5029777;28;20687;-66
2022/12/07 02:51:30;;;;;;;0.95;0.95;;;5.20;99.90;;;5.39;87.36;100759.06;5025128;28;20203;-67
2022/12/07 02:53:57;;;;;;;1.40;1.30;;;5.30;99.90;;;5.45;86.30;100755.34;5029818;28;20218;-67
2022/12/07 02:56:44;;;;;;;1.35;1.25;;;5.30;99.90;;;5.34;87.10;100749.84;5029578;28;20721;-66
2022/12/07 02:59:45;;;;;;;1.30;1.20;;;5.30;99.90;;;5.12;87.76;100746.59;5031015;28;20226;-66
2022/12/07 03:02:41;;;;;;;1.40;1.40;;;5.20;99.90;;;5.05;88.36;100743.47;5031625;28;20198;-66
2022/12/07 03:05:49;;;;;;;2.05;1.90;;;5.10;99.90;;;5.22;87.61;100745.25;5015411;28;20218;-68
2022/12/07 03:08:44;;;;;;;1.27;1.27;;;5.10;99.90;;;5.30;87.31;100749.13;5014237;28;20212;-65
2022/12/07 03:11:44;;;;;;;0.95;0.82;;;5.20;99.90;;;5.46;86.77;100744.06;5012486;28;20253;-66
2022/12/07 03:14:23;;;;;;;1.17;1.17;;;5.20;99.90;;;5.20;87.51;100731.56;5009643;28;20206;-65
2022/12/07 03:17:01;;;;;;;1.08;0.98;;;5.20;99.90;;;4.77;89.74;100731.94;5015702;28;20222;-65
2022/12/07 03:19:30;;;;;;;1.55;1.45;;;5.10;99.90;;;4.92;89.48;100732.03;4998779;28;20222;-66
2022/12/07 03:22:03;;;;;;;1.55;1.55;;;5.00;99.90;;;4.91;89.54;100729.53;5024055;28;20206;-66
2022/12/07 03:24:47;;;;;;;1.52;1.42;;;5.00;99.90;;;5.12;88.29;100736.25;5025557;28;20292;-65
2022/12/07 03:27:22;;;;;;;1.20;1.20;;;5.00;99.90;;;5.15;88.32;100728.38;5026506;28;20198;-65
2022/12/07 03:30:05;;;;;;;1.48;1.48;;;5.10;99.90;;;5.18;87.88;100729.03;5015399;28;20205;-65
2022/12/07 03:32:51;;;;;;;1.85;1.65;;;5.10;99.90;;;5.22;88.00;100724.56;5033023;28;20206;-66
2022/12/07 03:35:43;;;;;;;1.65;1.55;;;5.10;99.90;;;5.19;88.19;100724.72;5023011;28;20234;-64
2022/12/07 03:38:22;;;;;;;1.50;1.33;;;5.20;99.90;;;5.23;87.46;100721.06;5011398;28;20343;-64
2022/12/07 03:40:54;;;;;;;0.55;0.55;;;5.20;99.90;;;5.31;87.33;100716.34;5014515;28;20723;-68
2022/12/07 03:43:21;;;;;;;2.38;1.90;;;5.20;99.90;;;5.13;88.42;100715.50;5028746;28;20202;-66
2022/12/07 03:46:20;;;;;;;4.55;1.02;;;5.20;99.90;;;5.18;87.86;100715.28;5032710;28;20221;-65
2022/12/07 03:48:54;;;;;;;0.93;0.93;;;5.20;99.90;;;5.17;88.01;100716.19;5009203;28;20925;-70
2022/12/07 03:51:45;;;;;;;1.58;1.48;;;5.20;99.90;;;5.27;88.18;100722.59;5032182;28;20213;-66
2022/12/07 03:54:30;;;;;;;1.77;1.52;;;5.20;99.90;;;5.26;89.20;100718.34;5020998;28;20202;-66
2022/12/07 03:56:58;;;;;;;0.95;0.95;;;5.20;99.90;;;5.14;88.70;100713.75;5014528;28;20706;-66
2022/12/07 03:59:26;;;;;;;1.45;1.23;;;5.20;99.90;;;5.21;89.47;100722.91;5012869;28;20745;-66
2022/12/07 04:01:57;;;;;;;1.33;1.33;;;5.20;99.90;;;5.35;88.70;100716.13;5011870;28;20237;-66
2022/12/07 04:04:25;;;;;;;1.83;1.60;;;5.20;99.90;;;5.28;88.49;100712.16;5013652;28;20202;-66
2022/12/07 04:06:52;;;;;;;2.00;1.90;;;5.20;99.90;;;5.44;87.75;100714.84;5015939;28;20730;-66
2022/12/07 04:09:19;;;;;;;2.15;1.90;;;5.30;99.90;;;5.49;87.77;100718.06;5030973;28;20268;-67
2022/12/07 04:11:46;;;;;;;2.87;2.53;;;5.30;99.90;;;5.50;88.01;100727.47;5024598;28;20237;-68
2022/12/07 04:14:19;;;;;;;1.73;1.63;;;5.30;99.90;;;5.57;87.72;100722.84;5031186;28;20702;-67
2022/12/07 04:16:52;;;;;;;1.55;1.35;;;5.40;99.90;;;5.68;86.41;100716.22;5032248;28;20699;-68
2022/12/07 04:19:23;;;;;;;2.78;1.85;;;5.40;99.90;;;5.57;87.04;100720.25;5031540;28;20229;-66
2022/12/07 04:21:50;;;;;;;1.85;1.75;;;5.50;99.90;;;5.64;87.87;100725.06;5014362;28;20256;-68
2022/12/07 04:24:17;;;;;;;2.08;1.98;;;5.50;99.90;;;5.69;87.61;100709.25;5031907;28;20210;-67
2022/12/07 04:26:45;;;;;;;1.80;1.73;;;5.50;99.90;;;5.52;87.98;100717.88;5032080;28;20221;-66
2022/12/07 04:29:13;;;;;;;1.15;1.02;;;5.50;99.90;;;5.40;88.43;100718.50;5025291;28;20202;-69
2022/12/07 04:31:41;;;;;;;2.00;1.67;;;5.40;99.90;;;5.43;88.50;100715.78;5022033;28;20214;-67
2022/12/07 04:34:09;;;;;;;6.88;3.10;;;5.40;99.90;;;5.52;88.37;100717.88;5031610;28;20663;-66
2022/12/07 04:36:36;;;;;;;2.50;2.30;;;5.40;99.90;;;5.57;88.17;100713.31;5031125;28;20292;-68
2022/12/07 04:39:05;;;;;;;2.97;2.43;;;5.40;99.90;;;5.61;88.35;100720.03;5032262;28;20210;-66
2022/12/07 04:41:33;;;;;;;3.07;2.73;;;5.40;99.90;;;5.72;87.75;100715.16;5032125;28;20637;-67
2022/12/07 04:44:03;;;;;;;3.80;3.10;;;5.50;99.90;;;5.75;87.54;100714.97;5031168;28;20695;-68
2022/12/07 04:46:31;;;;;;;3.03;2.70;;;5.50;99.90;;;5.79;87.78;100715.69;5031503;28;20641;-67
2022/12/07 04:48:59;;;;;;;2.37;2.20;;;5.60;99.90;;;5.82;87.67;100715.50;5030678;28;20629;-66
2022/12/07 04:51:29;;;;;;;1.83;1.73;;;5.60;99.90;;;5.77;86.04;100713.13;5031275;28;20636;-66
2022/12/07 04:53:56;;;;;;;1.60;1.50;;;5.60;99.90;;;5.68;86.75;100712.78;5014452;28;20643;-66
2022/12/07 04:56:24;;;;;;;4.10;2.90;;;5.60;99.90;;;5.68;87.05;100707.59;5031118;28;20653;-67
2022/12/07 04:58:53;;;;;;;2.53;2.23;;;5.60;99.90;;;5.72;87.53;100712.56;5013351;28;20228;-67
2022/12/07 05:01:22;;;;;;;3.07;2.30;;;5.50;99.90;;;5.78;86.89;100714.81;5031823;28;21067;-66
2022/12/07 05:03:50;;;;;;;1.30;1.30;;;5.60;99.90;;;5.81;87.17;100704.34;5026792;28;20986;-66
2022/12/07 05:06:17;;;;;;;1.90;1.80;;;5.60;99.90;;;5.77;86.76;100702.78;5014122;28;20640;-67
2022/12/07 05:08:44;;;;;;;2.80;2.60;;;5.60;99.90;;;5.79;86.80;100700.13;5006514;28;20293;-66
2022/12/07 05:13:59;;;;;;;3.85;2.83;;;5.60;99.90;;;5.78;87.90;100704.47;5029834;28;20641;-66
2022/12/07 05:16:26;;;;;;;4.50;3.20;;;5.60;99.90;;;5.75;88.53;100709.78;5031359;28;20241;-66
2022/12/07 05:18:54;;;;;;;4.82;2.67;;;5.60;99.90;;;5.76;88.50;100708.91;5000812;28;20668;-66
2022/12/07 05:21:21;;;;;;;1.40;1.30;;;5.60;99.90;;;5.80;87.20;100707.81;5016754;28;20225;-66
2022/12/07 05:23:48;;;;;;;1.90;1.80;;;5.60;99.90;;;5.78;86.64;100711.41;5034859;28;20620;-67
2022/12/07 05:26:15;;;;;;;2.97;1.73;;;5.60;99.90;;;5.75;86.56;100709.78;5034809;28;20723;-66
2022/12/07 05:28:42;;;;;;;1.90;1.80;;;5.60;99.90;;;5.78;86.18;100708.81;5027859;28;20637;-66
2022/12/07 05:31:09;;;;;;;3.40;2.88;;;5.60;99.90;;;5.81;86.63;100713.84;5034688;28;20612;-66
2022/12/07 05:33:36;;;;;;;2.97;2.55;;;5.60;99.90;;;5.78;86.73;100704.47;5034483;28;20207;-66
2022/12/07 05:36:05;;;;;;;3.33;2.50;;;5.60;99.90;;;5.85;86.69;100700.69;5035087;28;20237;-66
2022/12/07 05:38:32;;;;;;;2.80;2.60;;;5.60;99.90;;;5.81;86.60;100703.47;5034503;28;20702;-66
2022/12/07 05:41:05;;;;;;;3.40;2.95;;;5.70;99.90;;;5.83;86.55;100702.50;5015696;28;20676;-69
2022/12/07 05:43:32;;;;;;;2.70;2.50;;;5.70;99.90;;;5.81;87.10;100704.34;5000320;28;20214;-67
2022/12/07 05:46:00;;;;;;;2.03;1.88;;;5.60;99.90;;;5.90;86.39;100705.66;5032224;28;20653;-68
2022/12/07 05:48:26;;;;;;;2.05;1.67;;;5.70;99.90;;;5.89;86.11;100702.22;5033576;28;20209;-67
2022/12/07 05:50:53;;;;;;;1.50;1.40;;;5.70;99.90;;;5.91;86.21;100704.72;5034367;28;20214;-68
2022/12/07 05:53:20;;;;;;;1.40;1.30;;;5.70;99.90;;;5.91;85.72;100708.16;5019284;28;20633;-66
2022/12/07 05:55:49;;;;;;;2.17;1.73;;;5.70;99.90;;;5.92;86.01;100707.22;5016365;28;20688;-66
2022/12/07 06:01:01;;;;;;;1.53;1.43;;;5.80;99.90;;;5.91;86.94;100704.72;5027153;28;20692;-66
2022/12/07 06:03:28;;;;;;;1.35;1.35;;;5.70;99.90;;;5.87;86.38;100708.38;5033252;28;20652;-68
2022/12/07 06:05:55;;;;;;;3.10;1.77;;;5.70;99.90;;;5.90;86.27;100710.81;5033953;28;20706;-66
2022/12/07 06:08:22;;;;;;;2.42;2.25;;;5.70;99.90;;;5.88;86.22;100713.47;5031222;28;21252;-67
2022/12/07 06:12:33;;;;;;;1.90;1.70;;;5.70;99.90;;;5.88;87.05;100710.88;5032355;28;20256;-66
2022/12/07 06:13:39;;;;;;;1.87;1.77;;;5.70;99.90;;;5.84;87.36;100709.38;5031869;28;20633;-67
2022/12/07 06:16:12;;;;;;;2.47;2.10;;;5.70;99.90;;;5.90;86.87;100714.22;5033692;28;20660;-66
2022/12/07 06:18:39;;;;;;;3.00;2.03;;;5.70;99.90;;;5.96;87.20;100713.91;5029342;28;21027;-67
2022/12/07 06:21:06;;;;;;;4.37;2.30;;;5.70;99.90;;;5.89;86.62;100715.16;5033785;28;20665;-67
2022/12/07 06:23:33;;;;;;;2.77;2.17;;;5.70;99.90;;;5.91;87.38;100708.16;5033999;28;20633;-66
2022/12/07 06:26:00;;;;;;;2.53;1.77;;;5.80;99.90;;;5.90;87.77;100714.22;5033218;28;20647;-66
2022/12/07 06:28:27;;;;;;;4.20;1.90;;;5.80;99.90;;;5.70;88.41;100708.38;5029355;28;20719;-66
2022/12/07 06:31:02;;;;;;;1.87;1.70;;;5.70;99.90;;;5.72;87.70;100704.78;5033462;28;20632;-66
2022/12/07 06:33:29;;;;;;;1.60;1.50;;;5.70;99.90;;;5.92;86.98;100709.81;5015519;28;20655;-66
2022/12/07 06:35:56;;;;;;;1.60;1.50;;;5.70;99.90;;;5.82;88.13;100721.53;5034118;28;20668;-65
2022/12/07 06:38:23;;;;;;;1.97;1.80;;;5.70;99.90;;;5.76;87.84;100714.06;5031197;28;20664;-67
2022/12/07 06:40:50;;;;;;;3.70;2.20;;;5.70;99.90;;;5.82;87.89;100721.53;5033102;28;21232;-67
2022/12/07 06:43:17;;;;;;;1.93;1.80;;;5.70;99.90;;;5.83;86.93;100720.63;5032492;28;20687;-66
2022/12/07 06:45:44;;;;;;;2.00;1.90;;;5.70;99.90;;;5.89;86.86;100715.16;5033038;28;20633;-67
2022/12/07 06:48:11;;;;;;;1.30;1.20;;;5.70;99.90;;;5.98;86.55;100717.28;5033049;28;20632;-67
2022/12/07 06:50:38;;;;;;;4.13;1.80;;;5.80;99.90;;;5.95;85.95;100722.59;5034392;28;20631;-64
2022/12/07 06:53:05;;;;;;;1.53;1.43;;;5.80;99.90;;;5.94;86.01;100714.94;5030606;28;21219;-68
2022/12/07 06:55:32;;;;;;;1.90;1.80;;;5.80;99.90;;;5.93;86.73;100716.66;5032852;28;20644;-66
2022/12/07 06:57:59;;;;;;;2.40;1.80;;;5.80;99.90;;;6.00;85.98;100714.59;5033204;28;20633;-65
2022/12/07 07:00:26;;;;;;;2.47;1.77;;;5.80;99.90;;;6.09;85.49;100722.72;5032179;28;20665;-67
2022/12/07 07:02:52;;;;;;;1.63;1.53;;;5.90;99.90;;;6.06;86.27;100724.63;5031710;28;20664;-66
2022/12/07 07:05:22;;;;;;;2.40;2.20;;;5.90;99.90;;;6.02;85.68;100730.91;5032409;28;20657;-66
2022/12/07 07:07:50;;;;;;;2.37;2.17;;;5.90;99.90;;;6.11;85.23;100723.47;5031846;28;20637;-69
2022/12/07 07:10:37;;;;;;;2.10;1.80;;;5.90;99.90;;;6.09;84.95;100733.06;5033555;28;20643;-66
2022/12/07 07:13:04;;;;;;;2.30;1.90;;;5.90;99.90;;;6.14;84.69;100733.69;5032245;28;20639;-66
2022/12/07 07:15:33;;;;;;;2.37;2.17;;;6.00;99.90;;;6.13;84.94;100732.00;5001539;28;20649;-66
2022/12/07 07:18:00;;;;;;;2.57;2.33;;;5.90;99.90;;;6.12;85.60;100735.53;5027198;28;20640;-66
2022/12/07 07:20:33;;;;;;;2.40;2.03;;;5.90;99.90;;;6.17;85.86;100732.69;5017090;28;20706;-66
2022/12/07 07:23:00;;;;;;;2.73;2.30;;;6.00;99.90;;;6.14;85.56;100728.50;5029879;28;20655;-66
2022/12/07 07:25:27;;;;;;;1.80;1.70;;;6.00;99.90;;;6.17;85.43;100733.53;5032584;28;20641;-66
2022/12/07 07:27:54;;;;;;;3.17;2.87;;;6.00;99.90;;;6.19;84.69;100736.88;5023273;28;20628;-67
2022/12/07 07:30:21;;;;;;;3.00;2.27;;;6.00;99.90;;;6.23;85.04;100738.41;5033866;28;20613;-66
2022/12/07 07:32:48;;;;;;;2.47;2.33;;;6.00;99.90;;;6.22;84.76;100739.31;5015110;28;20629;-67
2022/12/07 07:35:15;;;;;;;3.17;2.30;;;6.00;99.90;;;6.30;84.99;100744.09;5033836;28;20657;-66
2022/12/07 07:37:42;;;;;;;1.90;1.80;;;6.00;99.90;;;6.24;84.88;100739.22;5024479;28;20640;-67
2022/12/07 07:40:10;;;;;;;2.73;2.50;;;6.10;99.90;;;6.20;85.33;100740.28;5029311;28;20634;-66
2022/12/07 07:42:37;;;;;;;2.50;2.13;;;6.00;99.90;;;6.24;84.62;100740.06;5031855;28;20625;-66
2022/12/07 07:45:04;;;;;;;3.87;1.90;;;6.00;99.90;;;6.35;84.37;100749.84;5032452;28;20695;-66
2022/12/07 07:47:31;;;;;;;2.50;2.17;;;6.10;99.90;;;6.27;84.50;100744.25;5031577;28;21215;-66
2022/12/07 07:49:58;;;;;;;1.60;1.37;;;6.10;99.90;;;6.15;84.83;100744.91;5032391;28;20628;-66
2022/12/07 07:52:26;;;;;;;2.07;1.90;;;6.10;99.90;;;6.19;84.57;100757.63;5029844;28;21072;-65
2022/12/07 07:54:53;;;;;;;5.47;2.00;;;6.10;99.90;;;6.21;84.57;100754.94;5022667;28;20640;-67
2022/12/07 07:57:20;;;;;;;2.20;1.90;;;6.10;99.90;;;6.26;84.60;100758.94;5031028;28;20985;-67
2022/12/07 07:59:47;;;;;;;37.93;17.77;;;6.10;99.90;;;6.25;84.37;100753.84;5031402;28;20616;-67
2022/12/07 08:02:16;;;;;;;7.50;5.27;;;6.10;99.90;;;6.33;83.67;100758.63;5029277;28;20656;-66
2022/12/07 08:04:44;;;;;;;2.30;2.10;;;6.10;99.90;;;6.31;84.23;100760.47;5026803;28;20621;-68
2022/12/07 08:07:13;;;;;;;2.07;1.97;;;6.10;99.90;;;6.36;84.50;100755.88;5031961;28;20639;-66
2022/12/07 08:09:41;;;;;;;1.93;1.83;;;6.10;99.90;;;6.40;84.06;100765.16;5013027;28;20740;-66
2022/12/07 08:12:08;;;;;;;3.17;1.97;;;6.20;99.90;;;6.44;83.52;100761.50;5026821;28;20644;-67
2022/12/07 08:14:35;;;;;;;3.37;2.00;;;6.20;99.90;;;6.37;83.32;100766.16;5032042;28;21218;-68
2022/12/07 08:17:02;;;;;;;3.30;2.00;;;6.20;99.90;;;6.43;84.39;100759.84;5032347;28;20660;-66
2022/12/07 08:19:29;;;;;;;2.30;2.07;;;6.20;99.90;;;6.52;83.29;100759.31;5031864;28;20640;-67
2022/12/07 08:21:56;;;;;;;2.53;2.30;;;6.30;99.90;;;6.59;82.69;100761.53;5025654;28;20661;-66
2022/12/07 08:24:24;;;;;;;3.10;2.00;;;6.30;99.90;;;6.53;83.38;100761.88;5028251;28;20621;-66
2022/12/07 08:26:52;;;;;;;1.37;1.30;;;6.30;99.90;;;6.57;83.64;100758.19;5027774;28;20656;-66
2022/12/07 08:29:19;;;;;;;2.23;2.13;;;6.40;99.90;;;6.56;82.77;100768.66;5030209;28;20612;-66
2022/12/07 08:31:46;;;;;;;2.07;1.90;;;6.40;99.90;;;6.42;84.63;100753.81;5028570;28;20643;-66
2022/12/07 08:34:13;;;;;;;3.73;2.57;;;6.30;99.90;;;6.52;83.82;100767.09;5031230;28;20629;-68
2022/12/07 08:36:40;;;;;;;2.20;2.03;;;6.30;99.90;;;6.46;84.42;100757.91;5031572;22;20720;-64
2022/12/07 08:39:07;;;;;;;1.70;1.60;;;6.30;99.90;;;6.60;83.79;100754.59;4992380;28;20634;-64
2022/12/07 08:41:54;;;;;;;3.67;2.20;;;6.40;99.90;;;6.63;83.50;100757.84;5010143;28;20676;-64
2022/12/07 08:44:21;;;;;;;2.43;2.23;;;6.40;99.90;;;6.69;82.53;100767.03;5009941;28;20630;-65
2022/12/07 08:46:58;;;;;;;4.20;2.43;;;6.40;99.90;;;6.75;82.58;100762.38;5009986;28;20712;-64
2022/12/07 08:49:36;;;;;;;3.43;2.50;;;6.50;99.90;;;6.79;82.11;100763.06;4992665;28;20626;-65
2022/12/07 08:52:05;;;;;;;2.93;2.23;;;6.50;99.90;;;6.79;82.69;100763.06;5009918;28;21204;-64
2022/12/07 08:54:36;;;;;;;4.17;3.17;;;6.50;99.90;;;7.01;81.65;100759.19;5004303;28;20622;-65
2022/12/07 08:57:03;;;;;;;5.67;3.87;;;6.60;99.90;;;7.16;81.09;100760.09;5006438;28;20786;-63
2022/12/07 08:59:30;;;;;;;4.27;2.70;;;6.70;99.90;;;7.42;79.95;100759.47;4990880;28;21190;-66
2022/12/07 09:01:57;;;;;;;5.17;3.67;;;6.90;99.90;;;7.74;78.52;100755.88;5003871;28;20669;-64
2022/12/07 09:04:24;;;;;;;4.00;3.37;;;7.10;99.90;;;8.12;77.94;100757.97;5001028;28;20691;-64
2022/12/07 09:06:51;;;;;;;4.20;2.87;;;7.30;99.90;;;8.31;76.26;100754.19;5004359;28;20970;-63
2022/12/07 09:09:19;;;;;;;3.60;2.27;;;7.50;99.90;;;8.34;75.36;100756.63;5009944;28;20686;-64
2022/12/07 09:11:45;;;;;;;3.43;3.13;;;7.70;99.90;;;8.31;76.17;100758.56;5007907;28;20639;-63
2022/12/07 09:14:13;;;;;;;3.00;2.37;;;7.70;99.90;;;8.27;75.45;100759.66;5009208;28;20642;-64
2022/12/07 09:16:40;;;;;;;4.43;3.17;;;7.70;99.90;;;8.42;75.86;100761.34;4992232;28;20665;-65
2022/12/07 09:19:08;;;;;;;3.57;2.60;;;7.80;99.90;;;8.63;74.63;100757.44;5009775;28;20612;-63
2022/12/07 09:21:35;;;;;;;4.37;3.70;;;7.90;99.90;;;8.84;74.46;100761.28;5006824;28;21259;-63
2022/12/07 09:24:02;;;;;;;4.70;3.23;;;8.00;99.90;;;8.94;74.15;100762.41;5007024;28;20628;-64
2022/12/07 09:26:29;;;;;;;3.10;2.33;;;8.20;99.90;;;9.04;73.51;100763.50;5009586;28;20653;-65
2022/12/07 09:28:55;;;;;;;2.80;2.10;;;8.30;99.90;;;9.00;72.66;100761.16;5010157;28;20974;-64
2022/12/07 09:31:22;;;;;;;3.60;2.43;;;8.40;99.90;;;8.96;72.85;100764.91;5010182;28;20633;-65
2022/12/07 09:34:00;;;;;;;3.90;2.17;;;8.40;99.90;;;8.94;73.08;100770.22;5009260;28;21252;-64
2022/12/07 09:36:28;;;;;;;3.90;1.77;;;8.40;99.90;;;8.80;73.78;100759.81;5007989;28;20689;-64
2022/12/07 09:38:56;;;;;;;3.60;2.37;;;8.30;99.90;;;8.78;73.94;100766.03;5005860;28;20642;-64
2022/12/07 09:41:25;;;;;;;4.87;2.40;;;8.30;99.90;;;8.77;74.48;100764.38;5007108;28;20708;-65
2022/12/07 09:44:04;;;;;;;4.90;2.77;;;8.30;99.90;;;8.62;74.72;100766.19;4986814;28;20626;-65
2022/12/07 09:46:37;;;;;;;3.90;1.80;;;8.20;99.90;;;8.60;74.09;100761.03;4992638;28;20652;-65
2022/12/07 09:49:05;;;;;;;3.87;2.50;;;8.20;99.90;;;8.65;74.82;100765.13;4991953;28;20649;-64
2022/12/07 09:51:32;;;;;;;3.93;2.57;;;8.20;99.90;;;8.77;73.64;100761.78;4991361;28;20673;-65
2022/12/07 09:54:00;;;;;;;2.60;2.20;;;8.20;99.90;;;8.57;73.59;100753.44;5010404;28;21048;-65
2022/12/07 09:56:30;;;;;;;3.20;2.43;;;8.20;99.90;;;8.78;72.53;100756.47;4991478;28;20656;-64
2022/12/07 09:59:02;;;;;;;0.30;0.30;;;8.20;99.90;;;8.89;72.38;100748.84;5002148;28;20675;-63
2022/12/07 10:01:32;;;;;;;2.60;2.40;;;8.30;99.90;;;8.92;72.72;100745.22;4972331;28;20754;-60
2022/12/07 10:04:12;;;;;;;2.87;2.20;;;8.40;99.90;;;9.11;71.76;100746.56;5010890;28;20621;-64
2022/12/07 10:06:39;;;;;;;2.17;1.93;;;8.50;99.90;;;9.15;71.86;100750.63;5006527;28;20657;-64
2022/12/07 10:09:16;;;;;;;3.10;2.43;;;8.50;99.90;;;9.25;71.56;100753.47;5009592;28;20695;-64
2022/12/07 10:12:11;;;;;;;3.10;2.23;;;8.60;99.90;;;9.48;71.45;100745.00;5012207;28;20679;-63
2022/12/07 10:15:02;;;;;;;2.67;2.30;;;8.70;99.90;;;9.74;69.44;100738.91;5006127;28;20684;-63
2022/12/07 10:17:40;;;;;;;4.57;2.50;;;8.90;99.90;;;9.74;69.40;100743.28;5013099;28;20668;-64
2022/12/07 10:20:15;;;;;;;2.13;1.80;;;9.00;99.90;;;9.56;70.17;100740.09;5013099;28;21001;-64
2022/12/07 10:23:14;;;;;;;2.10;1.90;;;9.00;99.90;;;9.70;69.59;100741.81;5006882;28;20697;-64
2022/12/07 10:25:42;;;;;;;2.43;2.30;;;9.00;99.90;;;9.64;69.93;100732.63;5011449;28;20711;-63
2022/12/07 10:28:12;;;;;;;2.53;2.10;;;9.00;99.90;;;9.44;70.11;100737.47;5012056;28;21015;-64
2022/12/07 10:30:52;;;;;;;6.30;3.00;;;9.00;99.90;;;9.24;70.62;100736.19;5012650;28;20641;-64
2022/12/07 10:33:33;;;;;;;4.37;2.97;;;8.90;99.90;;;8.95;71.23;100732.84;5012992;28;21207;-64
2022/12/07 10:36:27;;;;;;;2.77;2.50;;;8.70;99.90;;;9.00;71.63;100728.19;5008955;28;20661;-65
2022/12/07 10:39:19;;;;;;;2.73;2.57;;;8.60;99.90;;;9.04;71.86;100731.41;5008343;28;20635;-64
2022/12/07 10:42:02;;;;;;;3.63;2.53;;;8.60;99.90;;;8.95;71.32;100721.59;5005657;28;20719;-66
2022/12/07 10:44:32;;;;;;;3.13;1.90;;;8.50;99.90;;;8.82;72.01;100718.94;5011976;28;20653;-66
2022/12/07 10:47:24;;;;;;;2.93;1.13;;;8.50;99.90;;;8.81;72.47;100719.03;5004832;28;20665;-65
2022/12/07 10:50:52;;;;;;;3.93;1.97;;;8.50;99.90;;;8.79;72.28;100718.28;5000474;28;20998;-65
2022/12/07 10:53:40;;;;;;;2.37;2.03;;;8.40;99.90;;;8.91;72.62;100718.34;4995292;28;20645;-66